sensor_id;sensor_type;location;lat;lon;timestamp;pressure;altitude;pressure_sealevel;temperature;humidity
39891;BME280;25564;53.312;9.790;2022-10-31T00:01:58;101196.56;;;11.61;87.78
39891;BME280;25564;53.312;9.790;2022-10-31T00:04:30;101201.81;;;11.64;87.73
39891;BME280;25564;53.312;9.790;2022-10-31T00:07:01;101193.81;;;11.67;87.85
39891;BME280;25564;53.312;9.790;2022-10-31T00:09:32;101190.22;;;11.70;88.12
39891;BME280;25564;53.312;9.790;2022-10-31T00:12:04;101185.78;;;11.70;88.13
39891;BME280;25564;53.312;9.790;2022-10-31T00:14:35;101191.91;;;11.78;88.19
39891;BME280;25564;53.312;9.790;2022-10-31T00:17:06;101194.53;;;11.82;88.54
39891;BME280;25564;53.312;9.790;2022-10-31T00:19:38;101197.13;;;11.85;88.49
39891;BME280;25564;53.312;9.790;2022-10-31T00:22:09;101194.47;;;11.85;88.60
39891;BME280;25564;53.312;9.790;2022-10-31T00:24:41;101202.44;;;11.86;88.41
39891;BME280;25564;53.312;9.790;2022-10-31T00:27:12;101195.41;;;11.82;88.46
39891;BME280;25564;53.312;9.790;2022-10-31T00:29:43;101190.06;;;11.84;88.66
39891;BME280;25564;53.312;9.790;2022-10-31T00:32:15;101181.19;;;11.83;88.50
39891;BME280;25564;53.312;9.790;2022-10-31T00:34:46;101176.75;;;11.84;88.65
39891;BME280;25564;53.312;9.790;2022-10-31T00:37:17;101183.00;;;11.81;88.59
39891;BME280;25564;53.312;9.790;2022-10-31T00:39:48;101182.16;;;11.77;88.60
39891;BME280;25564;53.312;9.790;2022-10-31T00:42:20;101190.19;;;11.73;88.54
39891;BME280;25564;53.312;9.790;2022-10-31T00:44:51;101192.91;;;11.68;88.36
39891;BME280;25564;53.312;9.790;2022-10-31T00:47:23;101193.81;;;11.66;88.32
39891;BME280;25564;53.312;9.790;2022-10-31T00:49:54;101202.75;;;11.60;88.33
39891;BME280;25564;53.312;9.790;2022-10-31T00:52:25;101208.97;;;11.59;88.35
39891;BME280;25564;53.312;9.790;2022-10-31T00:54:57;101210.81;;;11.56;88.27
39891;BME280;25564;53.312;9.790;2022-10-31T00:57:28;101220.56;;;11.55;88.51
39891;BME280;25564;53.312;9.790;2022-10-31T00:59:59;101212.63;;;11.52;88.32
39891;BME280;25564;53.312;9.790;2022-10-31T01:02:30;101230.34;;;11.53;88.59
39891;BME280;25564;53.312;9.790;2022-10-31T01:05:02;101224.19;;;11.50;88.82
39891;BME280;25564;53.312;9.790;2022-10-31T01:07:38;101233.88;;;11.52;88.51
39891;BME280;25564;53.312;9.790;2022-10-31T01:10:10;101233.94;;;11.49;88.42
39891;BME280;25564;53.312;9.790;2022-10-31T01:12:45;101234.91;;;11.43;88.37
39891;BME280;25564;53.312;9.790;2022-10-31T01:15:19;101249.09;;;11.42;88.36
39891;BME280;25564;53.312;9.790;2022-10-31T01:17:51;101234.97;;;11.39;88.39
39891;BME280;25564;53.312;9.790;2022-10-31T01:20:22;101253.47;;;11.45;88.43
39891;BME280;25564;53.312;9.790;2022-10-31T01:22:53;101245.41;;;11.51;88.36
39891;BME280;25564;53.312;9.790;2022-10-31T01:25:25;101255.00;;;11.64;88.38
39891;BME280;25564;53.312;9.790;2022-10-31T01:27:56;101243.41;;;11.70;88.33
39891;BME280;25564;53.312;9.790;2022-10-31T01:30:28;101233.72;;;11.64;88.71
39891;BME280;25564;53.312;9.790;2022-10-31T01:32:59;101250.44;;;11.74;88.82
39891;BME280;25564;53.312;9.790;2022-10-31T01:35:31;101248.69;;;11.71;88.59
39891;BME280;25564;53.312;9.790;2022-10-31T01:38:02;101255.78;;;11.71;88.99
39891;BME280;25564;53.312;9.790;2022-10-31T01:40:34;101254.06;;;11.67;88.88
39891;BME280;25564;53.312;9.790;2022-10-31T01:43:11;101258.47;;;11.69;89.25
39891;BME280;25564;53.312;9.790;2022-10-31T01:45:51;101249.69;;;11.63;88.88
39891;BME280;25564;53.312;9.790;2022-10-31T01:48:25;101256.72;;;11.68;88.91
39891;BME280;25564;53.312;9.790;2022-10-31T01:50:58;101258.56;;;11.63;89.65
39891;BME280;25564;53.312;9.790;2022-10-31T01:53:31;101277.97;;;11.68;89.28
39891;BME280;25564;53.312;9.790;2022-10-31T01:56:03;101266.47;;;11.68;89.42
39891;BME280;25564;53.312;9.790;2022-10-31T01:58:34;101271.78;;;11.68;89.45
39891;BME280;25564;53.312;9.790;2022-10-31T02:01:06;101270.09;;;11.62;89.45
39891;BME280;25564;53.312;9.790;2022-10-31T02:03:38;101264.81;;;11.59;89.44
39891;BME280;25564;53.312;9.790;2022-10-31T02:06:17;101265.66;;;11.61;89.54
39891;BME280;25564;53.312;9.790;2022-10-31T02:08:52;101267.47;;;11.58;89.52
39891;BME280;25564;53.312;9.790;2022-10-31T02:11:26;101271.06;;;11.55;89.63
39891;BME280;25564;53.312;9.790;2022-10-31T02:14:00;101267.63;;;11.47;89.16
39891;BME280;25564;53.312;9.790;2022-10-31T02:16:32;101275.56;;;11.48;89.41
39891;BME280;25564;53.312;9.790;2022-10-31T02:19:06;101282.69;;;11.45;89.24
39891;BME280;25564;53.312;9.790;2022-10-31T02:21:50;101281.88;;;11.43;89.46
39891;BME280;25564;53.312;9.790;2022-10-31T02:25:08;101288.97;;;11.41;89.53
39891;BME280;25564;53.312;9.790;2022-10-31T02:36:24;101285.50;;;11.36;89.56
39891;BME280;25564;53.312;9.790;2022-10-31T02:39:18;101290.81;;;11.36;89.53
39891;BME280;25564;53.312;9.790;2022-10-31T02:44:53;101274.00;;;11.34;89.88
39891;BME280;25564;53.312;9.790;2022-10-31T02:47:29;101286.31;;;11.41;89.76
39891;BME280;25564;53.312;9.790;2022-10-31T02:50:08;101289.78;;;11.44;90.03
39891;BME280;25564;53.312;9.790;2022-10-31T02:52:42;101292.41;;;11.47;89.75
39891;BME280;25564;53.312;9.790;2022-10-31T02:57:59;101294.97;;;11.55;90.53
39891;BME280;25564;53.312;9.790;2022-10-31T03:00:39;101303.75;;;11.63;90.87
39891;BME280;25564;53.312;9.790;2022-10-31T03:03:23;101307.19;;;11.71;90.82
39891;BME280;25564;53.312;9.790;2022-10-31T03:06:03;101290.41;;;11.66;90.45
39891;BME280;25564;53.312;9.790;2022-10-31T03:08:55;101304.44;;;11.81;90.71
39891;BME280;25564;53.312;9.790;2022-10-31T03:11:34;101299.09;;;11.84;90.66
39891;BME280;25564;53.312;9.790;2022-10-31T03:14:21;101302.53;;;11.90;90.81
39891;BME280;25564;53.312;9.790;2022-10-31T03:16:56;101302.41;;;12.01;90.91
39891;BME280;25564;53.312;9.790;2022-10-31T03:19:34;101319.03;;;12.15;91.05
39891;BME280;25564;53.312;9.790;2022-10-31T03:22:15;101326.91;;;12.23;90.83
39891;BME280;25564;53.312;9.790;2022-10-31T03:24:48;101322.44;;;12.25;90.70
39891;BME280;25564;53.312;9.790;2022-10-31T03:27:25;101323.19;;;12.34;90.78
39891;BME280;25564;53.312;9.790;2022-10-31T03:30:01;101327.50;;;12.43;90.89
39891;BME280;25564;53.312;9.790;2022-10-31T03:32:37;101332.66;;;12.51;90.84
39891;BME280;25564;53.312;9.790;2022-10-31T03:35:10;101322.00;;;12.52;91.25
39891;BME280;25564;53.312;9.790;2022-10-31T03:37:46;101326.25;;;12.64;91.12
39891;BME280;25564;53.312;9.790;2022-10-31T03:40:20;101335.91;;;12.71;91.39
39891;BME280;25564;53.312;9.790;2022-10-31T03:43:00;101338.41;;;12.80;91.31
39891;BME280;25564;53.312;9.790;2022-10-31T03:45:39;101337.41;;;12.87;91.32
39891;BME280;25564;53.312;9.790;2022-10-31T03:48:18;101337.31;;;12.93;91.41
39891;BME280;25564;53.312;9.790;2022-10-31T03:51:06;101343.38;;;13.01;91.20
39891;BME280;25564;53.312;9.790;2022-10-31T03:53:45;101352.16;;;13.06;91.54
39891;BME280;25564;53.312;9.790;2022-10-31T03:56:37;101355.63;;;13.12;91.64
39891;BME280;25564;53.312;9.790;2022-10-31T03:59:32;101360.84;;;13.19;91.58
39891;BME280;25564;53.312;9.790;2022-10-31T04:02:08;101360.78;;;13.24;91.45
39891;BME280;25564;53.312;9.790;2022-10-31T04:04:41;101360.69;;;13.28;91.69
39891;BME280;25564;53.312;9.790;2022-10-31T04:07:15;101357.16;;;13.28;91.48
39891;BME280;25564;53.312;9.790;2022-10-31T04:09:50;101366.81;;;13.33;91.71
39891;BME280;25564;53.312;9.790;2022-10-31T04:12:24;101365.81;;;13.39;91.69
39891;BME280;25564;53.312;9.790;2022-10-31T04:14:58;101362.19;;;13.43;91.73
39891;BME280;25564;53.312;9.790;2022-10-31T04:17:32;101369.22;;;13.47;91.83
39891;BME280;25564;53.312;9.790;2022-10-31T04:20:06;101370.97;;;13.50;91.92
39891;BME280;25564;53.312;9.790;2022-10-31T04:22:37;101363.75;;;13.53;91.95
39891;BME280;25564;53.312;9.790;2022-10-31T04:25:09;101371.66;;;13.58;91.72
39891;BME280;25564;53.312;9.790;2022-10-31T04:27:40;101366.34;;;13.56;91.73
39891;BME280;25564;53.312;9.790;2022-10-31T04:30:11;101367.06;;;13.64;92.05
39891;BME280;25564;53.312;9.790;2022-10-31T04:32:43;101371.47;;;13.67;91.73
39891;BME280;25564;53.312;9.790;2022-10-31T04:35:14;101381.16;;;13.72;91.99
39891;BME280;25564;53.312;9.790;2022-10-31T04:37:45;101366.91;;;13.73;91.71
39891;BME280;25564;53.312;9.790;2022-10-31T04:40:17;101379.22;;;13.79;91.95
39891;BME280;25564;53.312;9.790;2022-10-31T04:42:48;101375.63;;;13.82;91.94
39891;BME280;25564;53.312;9.790;2022-10-31T04:45:19;101374.66;;;13.86;91.52
39891;BME280;25564;53.312;9.790;2022-10-31T04:47:51;101362.31;;;13.80;92.09
39891;BME280;25564;53.312;9.790;2022-10-31T04:50:23;101384.34;;;13.90;91.79
39891;BME280;25564;53.312;9.790;2022-10-31T04:52:54;101379.00;;;13.90;91.83
39891;BME280;25564;53.312;9.790;2022-10-31T04:55:25;101373.69;;;13.90;91.71
39891;BME280;25564;53.312;9.790;2022-10-31T04:57:57;101376.22;;;13.96;92.03
39891;BME280;25564;53.312;9.790;2022-10-31T05:00:29;101383.28;;;13.98;91.69
39891;BME280;25564;53.312;9.790;2022-10-31T05:03:00;101387.69;;;14.01;91.63
39891;BME280;25564;53.312;9.790;2022-10-31T05:05:32;101386.00;;;13.97;92.00
39891;BME280;25564;53.312;9.790;2022-10-31T05:08:04;101381.47;;;14.00;91.69
39891;BME280;25564;53.312;9.790;2022-10-31T05:10:35;101383.22;;;14.01;91.87
39891;BME280;25564;53.312;9.790;2022-10-31T05:13:07;101384.03;;;14.05;91.87
39891;BME280;25564;53.312;9.790;2022-10-31T05:15:38;101387.50;;;14.10;92.21
39891;BME280;25564;53.312;9.790;2022-10-31T05:18:10;101378.56;;;14.11;91.85
39891;BME280;25564;53.312;9.790;2022-10-31T05:20:41;101374.16;;;14.10;92.04
39891;BME280;25564;53.312;9.790;2022-10-31T05:23:12;101375.84;;;14.14;91.83
39891;BME280;25564;53.312;9.790;2022-10-31T05:25:44;101379.38;;;14.15;91.78
39891;BME280;25564;53.312;9.790;2022-10-31T05:28:15;101373.16;;;14.14;91.47
39891;BME280;25564;53.312;9.790;2022-10-31T05:30:46;101374.91;;;14.15;91.75
39891;BME280;25564;53.312;9.790;2022-10-31T05:33:17;101383.78;;;14.17;91.84
39891;BME280;25564;53.312;9.790;2022-10-31T05:35:49;101382.00;;;14.16;91.32
39891;BME280;25564;53.312;9.790;2022-10-31T05:38:20;101376.75;;;14.13;91.45
39891;BME280;25564;53.312;9.790;2022-10-31T05:40:54;101381.13;;;14.16;91.73
39891;BME280;25564;53.312;9.790;2022-10-31T05:43:29;101383.84;;;14.14;91.54
39891;BME280;25564;53.312;9.790;2022-10-31T05:46:00;101385.63;;;14.14;91.74
39891;BME280;25564;53.312;9.790;2022-10-31T05:48:31;101387.41;;;14.13;91.47
39891;BME280;25564;53.312;9.790;2022-10-31T05:51:03;101390.13;;;14.12;91.40
39891;BME280;25564;53.312;9.790;2022-10-31T05:53:34;101379.53;;;14.07;91.60
39891;BME280;25564;53.312;9.790;2022-10-31T05:56:05;101380.53;;;14.03;91.53
39891;BME280;25564;53.312;9.790;2022-10-31T05:58:37;101391.91;;;14.11;91.65
39891;BME280;25564;53.312;9.790;2022-10-31T06:01:08;101378.66;;;14.06;91.62
39891;BME280;25564;53.312;9.790;2022-10-31T06:03:40;101387.50;;;14.10;91.42
39891;BME280;25564;53.312;9.790;2022-10-31T06:06:11;101386.56;;;14.11;91.33
39891;BME280;25564;53.312;9.790;2022-10-31T06:08:42;101382.22;;;14.07;91.35
39891;BME280;25564;53.312;9.790;2022-10-31T06:11:14;101384.91;;;14.05;91.51
39891;BME280;25564;53.312;9.790;2022-10-31T06:13:45;101397.28;;;14.10;91.32
39891;BME280;25564;53.312;9.790;2022-10-31T06:16:16;101389.38;;;14.05;91.25
39891;BME280;25564;53.312;9.790;2022-10-31T06:18:48;101404.34;;;14.12;91.34
39891;BME280;25564;53.312;9.790;2022-10-31T06:21:19;101396.38;;;14.11;91.28
39891;BME280;25564;53.312;9.790;2022-10-31T06:23:51;101400.69;;;14.16;91.54
39891;BME280;25564;53.312;9.790;2022-10-31T06:26:22;101412.22;;;14.18;91.02
39891;BME280;25564;53.312;9.790;2022-10-31T06:28:53;101411.31;;;14.19;91.39
39891;BME280;25564;53.312;9.790;2022-10-31T06:31:27;101407.75;;;14.19;91.18
39891;BME280;25564;53.312;9.790;2022-10-31T06:33:59;101426.41;;;14.20;90.98
39891;BME280;25564;53.312;9.790;2022-10-31T06:36:30;101416.63;;;14.21;91.33
39891;BME280;25564;53.312;9.790;2022-10-31T06:39:02;101413.03;;;14.22;91.09
39891;BME280;25564;53.312;9.790;2022-10-31T06:41:33;101414.84;;;14.21;91.34
39891;BME280;25564;53.312;9.790;2022-10-31T06:44:05;101426.41;;;14.20;90.82
39891;BME280;25564;53.312;9.790;2022-10-31T06:46:39;101421.13;;;14.19;90.95
39891;BME280;25564;53.312;9.790;2022-10-31T06:49:10;101426.38;;;14.22;90.85
39891;BME280;25564;53.312;9.790;2022-10-31T06:51:42;101429.03;;;14.23;91.21
39891;BME280;25564;53.312;9.790;2022-10-31T06:54:14;101435.22;;;14.25;91.06
39891;BME280;25564;53.312;9.790;2022-10-31T06:56:46;101434.28;;;14.28;91.27
39891;BME280;25564;53.312;9.790;2022-10-31T06:59:18;101431.59;;;14.28;90.89
39891;BME280;25564;53.312;9.790;2022-10-31T07:01:50;101439.53;;;14.31;90.99
39891;BME280;25564;53.312;9.790;2022-10-31T07:04:21;101443.06;;;14.33;91.12
39891;BME280;25564;53.312;9.790;2022-10-31T07:06:53;101443.88;;;14.36;91.72
39891;BME280;25564;53.312;9.790;2022-10-31T07:09:25;101446.50;;;14.38;91.21
39891;BME280;25564;53.312;9.790;2022-10-31T07:11:56;101442.91;;;14.40;91.11
39891;BME280;25564;53.312;9.790;2022-10-31T07:14:27;101443.72;;;14.46;91.05
39891;BME280;25564;53.312;9.790;2022-10-31T07:16:59;101453.41;;;14.50;91.09
39891;BME280;25564;53.312;9.790;2022-10-31T07:19:30;101460.41;;;14.55;91.52
39891;BME280;25564;53.312;9.790;2022-10-31T07:22:01;101457.56;;;14.61;90.86
39891;BME280;25564;53.312;9.790;2022-10-31T07:24:33;101455.75;;;14.63;90.71
39891;BME280;25564;53.312;9.790;2022-10-31T07:27:04;101446.81;;;14.64;90.85
39891;BME280;25564;53.312;9.790;2022-10-31T07:29:35;101454.84;;;14.64;90.77
39891;BME280;25564;53.312;9.790;2022-10-31T07:32:07;101451.38;;;14.59;90.82
39891;BME280;25564;53.312;9.790;2022-10-31T07:34:38;101463.78;;;14.62;90.67
39891;BME280;25564;53.312;9.790;2022-10-31T07:37:16;101462.06;;;14.59;90.68
39891;BME280;25564;53.312;9.790;2022-10-31T07:39:48;101469.97;;;14.64;90.53
39891;BME280;25564;53.312;9.790;2022-10-31T07:42:19;101473.47;;;14.67;90.78
39891;BME280;25564;53.312;9.790;2022-10-31T07:44:50;101473.28;;;14.75;90.91
39891;BME280;25564;53.312;9.790;2022-10-31T07:47:26;101479.31;;;14.85;90.95
39891;BME280;25564;53.312;9.790;2022-10-31T07:49:58;101470.31;;;14.89;90.18
39891;BME280;25564;53.312;9.790;2022-10-31T07:52:29;101477.22;;;14.97;90.37
39891;BME280;25564;53.312;9.790;2022-10-31T07:55:00;101478.84;;;15.04;90.75
39891;BME280;25564;53.312;9.790;2022-10-31T07:57:32;101471.63;;;15.08;90.52
39891;BME280;25564;53.312;9.790;2022-10-31T08:00:06;101470.59;;;15.14;90.52
39891;BME280;25564;53.312;9.790;2022-10-31T08:02:38;101478.50;;;15.18;89.45
39891;BME280;25564;53.312;9.790;2022-10-31T08:05:09;101474.03;;;15.19;90.28
39891;BME280;25564;53.312;9.790;2022-10-31T08:07:41;101468.78;;;15.16;89.89
39891;BME280;25564;53.312;9.790;2022-10-31T08:10:12;101474.84;;;15.22;89.94
39891;BME280;25564;53.312;9.790;2022-10-31T08:12:44;101472.13;;;15.24;89.50
39891;BME280;25564;53.312;9.790;2022-10-31T08:15:15;101486.34;;;15.26;89.53
39891;BME280;25564;53.312;9.790;2022-10-31T08:17:46;101480.94;;;15.29;89.72
39891;BME280;25564;53.312;9.790;2022-10-31T08:20:18;101482.69;;;15.30;89.46
39891;BME280;25564;53.312;9.790;2022-10-31T08:23:01;101468.53;;;15.25;89.70
39891;BME280;25564;53.312;9.790;2022-10-31T08:25:33;101469.38;;;15.27;89.59
39891;BME280;25564;53.312;9.790;2022-10-31T08:28:10;101474.66;;;15.30;89.75
39891;BME280;25564;53.312;9.790;2022-10-31T08:30:42;101475.44;;;15.35;89.58
39891;BME280;25564;53.312;9.790;2022-10-31T08:33:16;101477.09;;;15.39;89.63
39891;BME280;25564;53.312;9.790;2022-10-31T08:35:47;101488.66;;;15.41;89.38
39891;BME280;25564;53.312;9.790;2022-10-31T08:38:19;101484.22;;;15.40;89.56
39891;BME280;25564;53.312;9.790;2022-10-31T08:40:50;101482.47;;;15.39;89.32
39891;BME280;25564;53.312;9.790;2022-10-31T08:43:22;101484.97;;;15.45;89.16
39891;BME280;25564;53.312;9.790;2022-10-31T08:45:53;101485.75;;;15.50;89.16
39891;BME280;25564;53.312;9.790;2022-10-31T08:48:26;101484.66;;;15.59;89.32
39891;BME280;25564;53.312;9.790;2022-10-31T08:50:58;101473.75;;;15.65;89.27
39891;BME280;25564;53.312;9.790;2022-10-31T08:53:30;101476.28;;;15.71;89.02
39891;BME280;25564;53.312;9.790;2022-10-31T08:56:02;101474.34;;;15.76;88.60
39891;BME280;25564;53.312;9.790;2022-10-31T08:58:33;101473.28;;;15.83;88.79
39891;BME280;25564;53.312;9.790;2022-10-31T09:01:10;101475.66;;;15.94;88.64
39891;BME280;25564;53.312;9.790;2022-10-31T09:03:42;101473.66;;;16.02;88.67
39891;BME280;25564;53.312;9.790;2022-10-31T09:06:13;101471.81;;;16.04;88.29
39891;BME280;25564;53.312;9.790;2022-10-31T09:08:45;101475.22;;;16.09;88.24
39891;BME280;25564;53.312;9.790;2022-10-31T09:11:16;101461.81;;;16.11;87.97
39891;BME280;25564;53.312;9.790;2022-10-31T09:13:47;101464.38;;;16.14;88.10
39891;BME280;25564;53.312;9.790;2022-10-31T09:16:19;101466.81;;;16.23;87.87
39891;BME280;25564;53.312;9.790;2022-10-31T09:18:50;101461.38;;;16.26;87.74
39891;BME280;25564;53.312;9.790;2022-10-31T09:21:22;101451.63;;;16.23;87.51
39891;BME280;25564;53.312;9.790;2022-10-31T09:23:53;101451.63;;;16.23;87.41
39891;BME280;25564;53.312;9.790;2022-10-31T09:26:25;101460.41;;;16.28;87.23
39891;BME280;25564;53.312;9.790;2022-10-31T09:28:56;101462.16;;;16.29;87.22
39891;BME280;25564;53.312;9.790;2022-10-31T09:31:29;101466.41;;;16.37;87.03
39891;BME280;25564;53.312;9.790;2022-10-31T09:34:01;101457.50;;;16.36;86.88
39891;BME280;25564;53.312;9.790;2022-10-31T09:36:32;101460.97;;;16.40;86.88
39891;BME280;25564;53.312;9.790;2022-10-31T09:39:03;101452.97;;;16.38;86.68
39891;BME280;25564;53.312;9.790;2022-10-31T09:47:35;101452.75;;;16.15;86.47
39891;BME280;25564;53.312;9.790;2022-10-31T09:50:20;101465.19;;;16.17;86.46
39891;BME280;25564;53.312;9.790;2022-10-31T09:53:04;101471.41;;;16.18;86.55
39891;BME280;25564;53.312;9.790;2022-10-31T09:55:39;101473.09;;;16.22;86.55
39891;BME280;25564;53.312;9.790;2022-10-31T09:58:30;101473.03;;;16.23;86.65
39891;BME280;25564;53.312;9.790;2022-10-31T10:01:16;101472.28;;;16.18;86.24
39891;BME280;25564;53.312;9.790;2022-10-31T10:03:53;101484.91;;;16.15;86.54
39891;BME280;25564;53.312;9.790;2022-10-31T10:06:33;101483.28;;;16.09;86.22
39891;BME280;25564;53.312;9.790;2022-10-31T10:09:07;101473.59;;;16.03;86.56
39891;BME280;25564;53.312;9.790;2022-10-31T10:12:16;101480.59;;;16.09;86.52
39891;BME280;25564;53.312;9.790;2022-10-31T10:15:24;101472.44;;;16.14;86.42
39891;BME280;25564;53.312;9.790;2022-10-31T10:18:06;101470.53;;;16.17;86.41
39891;BME280;25564;53.312;9.790;2022-10-31T10:20:59;101471.47;;;16.16;86.10
39891;BME280;25564;53.312;9.790;2022-10-31T10:24:12;101461.66;;;16.15;86.18
39891;BME280;25564;53.312;9.790;2022-10-31T10:26:37;101451.75;;;16.19;85.96
39891;BME280;25564;53.312;9.790;2022-10-31T10:32:10;101447.22;;;16.21;86.05
39891;BME280;25564;53.312;9.790;2022-10-31T10:34:48;101440.06;;;16.21;85.88
39891;BME280;25564;53.312;9.790;2022-10-31T10:37:30;101447.97;;;16.26;85.72
39891;BME280;25564;53.312;9.790;2022-10-31T10:40:11;101449.69;;;16.28;85.47
39891;BME280;25564;53.312;9.790;2022-10-31T10:46:12;101456.00;;;16.26;85.54
39891;BME280;25564;53.312;9.790;2022-10-31T10:58:02;101452.28;;;16.61;85.59
39891;BME280;25564;53.312;9.790;2022-10-31T11:00:43;101467.78;;;16.79;85.30
39891;BME280;25564;53.312;9.790;2022-10-31T11:03:18;101446.16;;;16.85;85.23
39891;BME280;25564;53.312;9.790;2022-10-31T11:05:57;101445.97;;;16.91;85.18
39891;BME280;25564;53.312;9.790;2022-10-31T11:08:34;101444.59;;;17.06;84.68
39891;BME280;25564;53.312;9.790;2022-10-31T11:14:11;101444.38;;;17.12;83.91
39891;BME280;25564;53.312;9.790;2022-10-31T11:16:50;101443.72;;;17.06;83.56
39891;BME280;25564;53.312;9.790;2022-10-31T11:19:25;101438.28;;;17.07;83.65
39891;BME280;25564;53.312;9.790;2022-10-31T11:22:16;101439.91;;;17.13;83.20
39891;BME280;25564;53.312;9.790;2022-10-31T11:24:47;101441.44;;;17.20;83.17
39891;BME280;25564;53.312;9.790;2022-10-31T11:27:21;101435.06;;;17.24;82.90
39891;BME280;25564;53.312;9.790;2022-10-31T11:30:03;101436.44;;;17.36;83.05
39891;BME280;25564;53.312;9.790;2022-10-31T11:32:35;101428.13;;;17.43;82.42
39891;BME280;25564;53.312;9.790;2022-10-31T11:35:10;101429.56;;;17.53;82.27
39891;BME280;25564;53.312;9.790;2022-10-31T11:37:44;101424.91;;;17.58;81.96
39891;BME280;25564;53.312;9.790;2022-10-31T11:40:24;101424.69;;;17.64;81.68
39891;BME280;25564;53.312;9.790;2022-10-31T11:42:58;101422.91;;;17.65;81.12
39891;BME280;25564;53.312;9.790;2022-10-31T11:45:34;101415.88;;;17.61;80.44
39891;BME280;25564;53.312;9.790;2022-10-31T11:48:23;101423.06;;;17.60;80.05
39891;BME280;25564;53.312;9.790;2022-10-31T11:50:57;101411.81;;;17.49;79.92
39891;BME280;25564;53.312;9.790;2022-10-31T11:53:32;101425.03;;;17.55;79.92
39891;BME280;25564;53.312;9.790;2022-10-31T11:56:13;101421.69;;;17.49;79.61
39891;BME280;25564;53.312;9.790;2022-10-31T11:58:56;101417.63;;;17.37;79.20
39891;BME280;25564;53.312;9.790;2022-10-31T12:01:30;101417.16;;;17.24;79.26
39891;BME280;25564;53.312;9.790;2022-10-31T12:06:41;101397.91;;;17.12;79.21
39891;BME280;25564;53.312;9.790;2022-10-31T12:09:37;101411.22;;;17.15;79.10
39891;BME280;25564;53.312;9.790;2022-10-31T12:15:30;101407.81;;;17.36;79.26
39891;BME280;25564;53.312;9.790;2022-10-31T12:32:13;101403.50;;;17.57;78.64
39891;BME280;25564;53.312;9.790;2022-10-31T12:47:05;101370.19;;;17.62;78.15
39891;BME280;25564;53.312;9.790;2022-10-31T12:55:29;101368.44;;;17.61;78.22
39891;BME280;25564;53.312;9.790;2022-10-31T12:58:22;101364.88;;;17.61;78.41
39891;BME280;25564;53.312;9.790;2022-10-31T13:01:12;101367.50;;;17.62;78.46
39891;BME280;25564;53.312;9.790;2022-10-31T13:04:08;101364.00;;;17.60;78.62
39891;BME280;25564;53.312;9.790;2022-10-31T13:06:49;101364.88;;;17.61;78.63
39891;BME280;25564;53.312;9.790;2022-10-31T13:09:27;101354.88;;;17.66;78.26
39891;BME280;25564;53.312;9.790;2022-10-31T13:12:08;101346.53;;;17.74;78.65
39891;BME280;25564;53.312;9.790;2022-10-31T13:14:46;101347.00;;;17.85;78.10
39891;BME280;25564;53.312;9.790;2022-10-31T13:17:34;101347.59;;;17.93;78.15
39891;BME280;25564;53.312;9.790;2022-10-31T13:20:16;101340.00;;;18.04;77.90
39891;BME280;25564;53.312;9.790;2022-10-31T13:22:58;101333.28;;;18.16;77.96
39891;BME280;25564;53.312;9.790;2022-10-31T13:25:55;101325.91;;;18.21;77.44
39891;BME280;25564;53.312;9.790;2022-10-31T13:28:29;101331.22;;;18.22;77.63
39891;BME280;25564;53.312;9.790;2022-10-31T13:31:04;101333.97;;;18.21;77.19
39891;BME280;25564;53.312;9.790;2022-10-31T13:33:55;101320.78;;;18.15;76.81
39891;BME280;25564;53.312;9.790;2022-10-31T13:36:55;101314.06;;;18.03;76.91
39891;BME280;25564;53.312;9.790;2022-10-31T13:42:34;101306.59;;;17.88;77.47
39891;BME280;25564;53.312;9.790;2022-10-31T13:45:14;101284.84;;;17.72;77.58
39891;BME280;25564;53.312;9.790;2022-10-31T13:50:32;101293.59;;;17.77;78.04
39891;BME280;25564;53.312;9.790;2022-10-31T13:53:19;101293.59;;;17.77;78.11
39891;BME280;25564;53.312;9.790;2022-10-31T13:56:17;101284.53;;;17.80;78.27
39891;BME280;25564;53.312;9.790;2022-10-31T14:01:33;101282.84;;;17.77;77.96
39891;BME280;25564;53.312;9.790;2022-10-31T14:04:07;101275.03;;;17.71;77.92
39891;BME280;25564;53.312;9.790;2022-10-31T14:07:08;101272.41;;;17.70;77.74
39891;BME280;25564;53.312;9.790;2022-10-31T14:09:58;101257.47;;;17.62;77.67
39891;BME280;25564;53.312;9.790;2022-10-31T14:12:36;101260.16;;;17.62;78.02
39891;BME280;25564;53.312;9.790;2022-10-31T14:15:19;101252.22;;;17.59;77.89
39891;BME280;25564;53.312;9.790;2022-10-31T14:17:59;101243.47;;;17.54;77.52
39891;BME280;25564;53.312;9.790;2022-10-31T14:20:39;101243.75;;;17.47;77.59
39891;BME280;25564;53.312;9.790;2022-10-31T14:23:37;101224.53;;;17.34;77.66
39891;BME280;25564;53.312;9.790;2022-10-31T14:28:56;101219.84;;;17.16;77.81
39891;BME280;25564;53.312;9.790;2022-10-31T14:39:53;101208.72;;;16.78;78.41
39891;BME280;25564;53.312;9.790;2022-10-31T14:45:28;101215.22;;;16.71;79.13
39891;BME280;25564;53.312;9.790;2022-10-31T14:48:36;101205.53;;;16.67;79.07
39891;BME280;25564;53.312;9.790;2022-10-31T14:51:24;101214.69;;;16.60;79.08
39891;BME280;25564;53.312;9.790;2022-10-31T14:53:57;101226.50;;;16.54;79.32
39891;BME280;25564;53.312;9.790;2022-10-31T14:56:34;101214.19;;;16.49;79.50
39891;BME280;25564;53.312;9.790;2022-10-31T14:59:13;101213.47;;;16.44;80.11
39891;BME280;25564;53.312;9.790;2022-10-31T15:02:14;101201.09;;;16.40;79.77
39891;BME280;25564;53.312;9.790;2022-10-31T15:04:48;101194.22;;;16.32;79.84
39891;BME280;25564;53.312;9.790;2022-10-31T15:07:24;101183.69;;;16.26;80.04
39891;BME280;25564;53.312;9.790;2022-10-31T15:10:05;101181.19;;;16.22;80.20
39891;BME280;25564;53.312;9.790;2022-10-31T15:12:38;101174.47;;;16.09;80.25
39891;BME280;25564;53.312;9.790;2022-10-31T15:15:24;101172.63;;;16.11;80.48